sensor_id;sensor_type;location;lat;lon;timestamp;temperature;humidity
33007;DHT22;19361;51.598;7.650;2024-03-07T00:02:56;8.20;67.70
33007;DHT22;19361;51.598;7.650;2024-03-07T00:07:57;8.20;67.60
33007;DHT22;19361;51.598;7.650;2024-03-07T00:12:58;8.10;67.50
33007;DHT22;19361;51.598;7.650;2024-03-07T00:18:00;8.10;67.60
33007;DHT22;19361;51.598;7.650;2024-03-07T00:23:01;8.00;67.60
33007;DHT22;19361;51.598;7.650;2024-03-07T00:28:03;8.00;67.70
33007;DHT22;19361;51.598;7.650;2024-03-07T00:33:04;7.90;67.70
33007;DHT22;19361;51.598;7.650;2024-03-07T00:38:05;7.90;67.70
33007;DHT22;19361;51.598;7.650;2024-03-07T00:43:05;7.90;67.80
33007;DHT22;19361;51.598;7.650;2024-03-07T00:48:06;7.80;68.00
33007;DHT22;19361;51.598;7.650;2024-03-07T00:53:07;7.80;68.10
33007;DHT22;19361;51.598;7.650;2024-03-07T00:58:08;7.80;68.10
33007;DHT22;19361;51.598;7.650;2024-03-07T01:03:09;7.80;68.10
33007;DHT22;19361;51.598;7.650;2024-03-07T01:08:14;7.80;68.10
33007;DHT22;19361;51.598;7.650;2024-03-07T01:13:14;7.80;68.20
33007;DHT22;19361;51.598;7.650;2024-03-07T01:18:19;7.80;68.10
33007;DHT22;19361;51.598;7.650;2024-03-07T01:23:20;7.80;68.10
33007;DHT22;19361;51.598;7.650;2024-03-07T01:28:21;7.80;68.10
33007;DHT22;19361;51.598;7.650;2024-03-07T01:33:23;7.80;68.00
33007;DHT22;19361;51.598;7.650;2024-03-07T01:38:24;7.80;68.00
33007;DHT22;19361;51.598;7.650;2024-03-07T01:43:25;7.80;68.00
33007;DHT22;19361;51.598;7.650;2024-03-07T01:48:27;7.70;67.90
33007;DHT22;19361;51.598;7.650;2024-03-07T01:53:29;7.70;68.00
33007;DHT22;19361;51.598;7.650;2024-03-07T01:58:31;7.70;67.90
33007;DHT22;19361;51.598;7.650;2024-03-07T02:03:32;7.60;67.90
33007;DHT22;19361;51.598;7.650;2024-03-07T02:08:33;7.60;67.90
33007;DHT22;19361;51.598;7.650;2024-03-07T02:13:35;7.50;67.90
33007;DHT22;19361;51.598;7.650;2024-03-07T02:18:36;7.50;67.80
33007;DHT22;19361;51.598;7.650;2024-03-07T02:23:38;7.50;67.90
33007;DHT22;19361;51.598;7.650;2024-03-07T02:28:39;7.40;67.80
33007;DHT22;19361;51.598;7.650;2024-03-07T02:33:40;7.40;67.80
33007;DHT22;19361;51.598;7.650;2024-03-07T02:38:41;7.30;67.70
33007;DHT22;19361;51.598;7.650;2024-03-07T02:43:42;7.30;67.60
33007;DHT22;19361;51.598;7.650;2024-03-07T02:48:43;7.20;68.10
33007;DHT22;19361;51.598;7.650;2024-03-07T02:53:44;7.20;67.70
33007;DHT22;19361;51.598;7.650;2024-03-07T02:58:44;7.10;67.70
33007;DHT22;19361;51.598;7.650;2024-03-07T03:03:45;7.10;67.60
33007;DHT22;19361;51.598;7.650;2024-03-07T03:08:47;7.10;67.70
33007;DHT22;19361;51.598;7.650;2024-03-07T03:13:48;7.00;67.70
33007;DHT22;19361;51.598;7.650;2024-03-07T03:18:49;7.00;67.70
33007;DHT22;19361;51.598;7.650;2024-03-07T03:23:49;7.00;68.30
33007;DHT22;19361;51.598;7.650;2024-03-07T03:28:51;7.00;67.70
33007;DHT22;19361;51.598;7.650;2024-03-07T03:33:51;6.90;67.70
33007;DHT22;19361;51.598;7.650;2024-03-07T03:38:52;7.00;67.70
33007;DHT22;19361;51.598;7.650;2024-03-07T03:43:53;6.90;67.50
33007;DHT22;19361;51.598;7.650;2024-03-07T03:48:53;6.90;67.50
33007;DHT22;19361;51.598;7.650;2024-03-07T03:53:54;6.80;67.50
33007;DHT22;19361;51.598;7.650;2024-03-07T03:58:55;6.80;67.50
33007;DHT22;19361;51.598;7.650;2024-03-07T04:03:55;6.80;67.60
33007;DHT22;19361;51.598;7.650;2024-03-07T04:08:56;6.70;67.60
33007;DHT22;19361;51.598;7.650;2024-03-07T04:13:57;6.70;67.60
33007;DHT22;19361;51.598;7.650;2024-03-07T04:18:57;6.70;67.50
33007;DHT22;19361;51.598;7.650;2024-03-07T04:23:58;6.60;67.50
33007;DHT22;19361;51.598;7.650;2024-03-07T04:28:59;6.60;67.60
33007;DHT22;19361;51.598;7.650;2024-03-07T04:33:59;6.60;67.50
33007;DHT22;19361;51.598;7.650;2024-03-07T04:39:00;6.50;67.50
33007;DHT22;19361;51.598;7.650;2024-03-07T04:44:04;6.50;67.50
33007;DHT22;19361;51.598;7.650;2024-03-07T04:49:05;6.40;67.50
33007;DHT22;19361;51.598;7.650;2024-03-07T04:54:05;6.50;67.50
33007;DHT22;19361;51.598;7.650;2024-03-07T04:59:06;6.40;67.50
33007;DHT22;19361;51.598;7.650;2024-03-07T05:04:07;6.30;67.50
33007;DHT22;19361;51.598;7.650;2024-03-07T05:09:09;6.30;67.50
33007;DHT22;19361;51.598;7.650;2024-03-07T05:14:21;6.30;67.50
33007;DHT22;19361;51.598;7.650;2024-03-07T05:19:22;6.20;67.50
33007;DHT22;19361;51.598;7.650;2024-03-07T05:24:23;6.20;67.50
33007;DHT22;19361;51.598;7.650;2024-03-07T05:29:24;6.20;67.60
33007;DHT22;19361;51.598;7.650;2024-03-07T05:34:24;6.10;67.60
33007;DHT22;19361;51.598;7.650;2024-03-07T05:39:28;6.20;67.80
33007;DHT22;19361;51.598;7.650;2024-03-07T05:44:29;6.10;67.70
33007;DHT22;19361;51.598;7.650;2024-03-07T05:49:30;6.00;67.70
33007;DHT22;19361;51.598;7.650;2024-03-07T05:54:32;6.00;67.80
33007;DHT22;19361;51.598;7.650;2024-03-07T05:59:33;6.00;67.90
33007;DHT22;19361;51.598;7.650;2024-03-07T06:04:33;5.90;67.80
33007;DHT22;19361;51.598;7.650;2024-03-07T06:09:34;6.00;67.90
33007;DHT22;19361;51.598;7.650;2024-03-07T06:14:35;6.00;68.00
33007;DHT22;19361;51.598;7.650;2024-03-07T06:19:36;6.00;68.00
33007;DHT22;19361;51.598;7.650;2024-03-07T06:24:36;5.90;68.00
33007;DHT22;19361;51.598;7.650;2024-03-07T06:29:37;5.90;68.00
33007;DHT22;19361;51.598;7.650;2024-03-07T06:34:38;5.90;68.00
33007;DHT22;19361;51.598;7.650;2024-03-07T06:39:38;5.90;68.10
33007;DHT22;19361;51.598;7.650;2024-03-07T06:44:39;5.90;68.10
33007;DHT22;19361;51.598;7.650;2024-03-07T06:49:40;5.90;68.10
33007;DHT22;19361;51.598;7.650;2024-03-07T06:54:41;5.90;68.10
33007;DHT22;19361;51.598;7.650;2024-03-07T06:59:41;6.00;68.20
33007;DHT22;19361;51.598;7.650;2024-03-07T07:04:42;5.90;68.20
33007;DHT22;19361;51.598;7.650;2024-03-07T07:09:43;5.90;68.50
33007;DHT22;19361;51.598;7.650;2024-03-07T07:14:44;6.00;68.70
33007;DHT22;19361;51.598;7.650;2024-03-07T07:19:44;6.10;68.80
33007;DHT22;19361;51.598;7.650;2024-03-07T07:24:45;6.20;69.00
33007;DHT22;19361;51.598;7.650;2024-03-07T07:29:46;6.30;68.90
33007;DHT22;19361;51.598;7.650;2024-03-07T07:34:48;6.40;68.80
33007;DHT22;19361;51.598;7.650;2024-03-07T07:39:49;6.50;68.60
33007;DHT22;19361;51.598;7.650;2024-03-07T07:44:50;6.60;68.30
33007;DHT22;19361;51.598;7.650;2024-03-07T07:49:50;6.60;68.10
33007;DHT22;19361;51.598;7.650;2024-03-07T07:54:51;6.70;68.20
33007;DHT22;19361;51.598;7.650;2024-03-07T07:59:52;6.70;68.10
33007;DHT22;19361;51.598;7.650;2024-03-07T08:04:52;6.80;68.20
33007;DHT22;19361;51.598;7.650;2024-03-07T08:09:53;6.80;68.10
33007;DHT22;19361;51.598;7.650;2024-03-07T08:14:54;6.80;68.10
33007;DHT22;19361;51.598;7.650;2024-03-07T08:19:55;6.90;68.00
33007;DHT22;19361;51.598;7.650;2024-03-07T08:24:56;7.00;68.20
33007;DHT22;19361;51.598;7.650;2024-03-07T08:29:57;7.00;68.30
33007;DHT22;19361;51.598;7.650;2024-03-07T08:34:59;7.10;68.40
33007;DHT22;19361;51.598;7.650;2024-03-07T08:40:02;7.20;68.40
33007;DHT22;19361;51.598;7.650;2024-03-07T08:45:08;7.30;68.40
33007;DHT22;19361;51.598;7.650;2024-03-07T08:50:10;7.40;68.30
33007;DHT22;19361;51.598;7.650;2024-03-07T08:55:20;7.50;68.20
33007;DHT22;19361;51.598;7.650;2024-03-07T09:00:23;7.60;68.00
33007;DHT22;19361;51.598;7.650;2024-03-07T09:05:27;7.70;67.30
33007;DHT22;19361;51.598;7.650;2024-03-07T09:10:27;7.80;67.30
33007;DHT22;19361;51.598;7.650;2024-03-07T09:15:30;7.90;67.20
33007;DHT22;19361;51.598;7.650;2024-03-07T09:20:32;8.00;66.00
33007;DHT22;19361;51.598;7.650;2024-03-07T09:25:32;8.10;66.40
33007;DHT22;19361;51.598;7.650;2024-03-07T09:30:33;8.20;66.10
33007;DHT22;19361;51.598;7.650;2024-03-07T09:35:35;8.30;65.60
33007;DHT22;19361;51.598;7.650;2024-03-07T09:40:35;8.40;65.70
33007;DHT22;19361;51.598;7.650;2024-03-07T09:45:37;8.50;65.60
33007;DHT22;19361;51.598;7.650;2024-03-07T09:50:40;8.70;65.70
33007;DHT22;19361;51.598;7.650;2024-03-07T09:55:42;8.70;65.50
33007;DHT22;19361;51.598;7.650;2024-03-07T10:00:42;8.90;65.20
33007;DHT22;19361;51.598;7.650;2024-03-07T10:05:43;8.90;64.70
33007;DHT22;19361;51.598;7.650;2024-03-07T10:10:45;9.00;64.40
33007;DHT22;19361;51.598;7.650;2024-03-07T10:15:46;9.10;64.60
33007;DHT22;19361;51.598;7.650;2024-03-07T10:20:47;9.20;64.80
33007;DHT22;19361;51.598;7.650;2024-03-07T10:25:52;9.30;64.20
33007;DHT22;19361;51.598;7.650;2024-03-07T10:30:54;9.40;64.20
33007;DHT22;19361;51.598;7.650;2024-03-07T10:35:55;9.50;64.40
33007;DHT22;19361;51.598;7.650;2024-03-07T10:40:56;9.60;64.20
33007;DHT22;19361;51.598;7.650;2024-03-07T10:45:57;9.70;64.30
33007;DHT22;19361;51.598;7.650;2024-03-07T10:51:32;9.80;63.70
33007;DHT22;19361;51.598;7.650;2024-03-07T11:07:27;10.40;64.20
33007;DHT22;19361;51.598;7.650;2024-03-07T11:12:29;10.60;64.30
33007;DHT22;19361;51.598;7.650;2024-03-07T11:17:30;10.90;62.70
33007;DHT22;19361;51.598;7.650;2024-03-07T11:22:33;11.10;61.30
33007;DHT22;19361;51.598;7.650;2024-03-07T11:27:37;11.20;61.00
33007;DHT22;19361;51.598;7.650;2024-03-07T11:32:39;11.30;60.80
33007;DHT22;19361;51.598;7.650;2024-03-07T11:37:45;11.30;60.40
33007;DHT22;19361;51.598;7.650;2024-03-07T11:42:49;11.40;60.30
33007;DHT22;19361;51.598;7.650;2024-03-07T11:47:53;11.40;59.50
33007;DHT22;19361;51.598;7.650;2024-03-07T11:53:12;11.40;59.30
33007;DHT22;19361;51.598;7.650;2024-03-07T11:58:20;11.40;58.90
33007;DHT22;19361;51.598;7.650;2024-03-07T12:03:22;11.50;59.10
33007;DHT22;19361;51.598;7.650;2024-03-07T12:08:23;11.40;58.80
33007;DHT22;19361;51.598;7.650;2024-03-07T12:13:24;11.50;59.00
33007;DHT22;19361;51.598;7.650;2024-03-07T12:18:25;11.50;58.80
33007;DHT22;19361;51.598;7.650;2024-03-07T12:23:27;11.50;58.60
33007;DHT22;19361;51.598;7.650;2024-03-07T12:28:27;11.50;58.90
33007;DHT22;19361;51.598;7.650;2024-03-07T12:33:34;11.70;59.70
33007;DHT22;19361;51.598;7.650;2024-03-07T12:38:39;11.70;57.80
33007;DHT22;19361;51.598;7.650;2024-03-07T12:43:41;11.80;57.90
33007;DHT22;19361;51.598;7.650;2024-03-07T12:48:42;11.90;57.00
33007;DHT22;19361;51.598;7.650;2024-03-07T12:53:45;11.90;57.00
33007;DHT22;19361;51.598;7.650;2024-03-07T12:58:46;11.90;55.40
33007;DHT22;19361;51.598;7.650;2024-03-07T13:03:49;12.10;53.70
33007;DHT22;19361;51.598;7.650;2024-03-07T13:08:50;12.30;53.80
33007;DHT22;19361;51.598;7.650;2024-03-07T13:13:51;12.40;51.90
33007;DHT22;19361;51.598;7.650;2024-03-07T13:18:55;12.40;52.50
33007;DHT22;19361;51.598;7.650;2024-03-07T13:23:56;12.40;52.50
33007;DHT22;19361;51.598;7.650;2024-03-07T13:28:58;12.40;52.00
33007;DHT22;19361;51.598;7.650;2024-03-07T13:34:01;12.40;53.00
33007;DHT22;19361;51.598;7.650;2024-03-07T13:39:02;12.50;53.90
33007;DHT22;19361;51.598;7.650;2024-03-07T13:44:04;12.60;53.80
33007;DHT22;19361;51.598;7.650;2024-03-07T13:49:05;12.60;54.30
33007;DHT22;19361;51.598;7.650;2024-03-07T13:54:13;12.70;53.90
33007;DHT22;19361;51.598;7.650;2024-03-07T14:05:41;12.60;52.50
33007;DHT22;19361;51.598;7.650;2024-03-07T14:11:18;12.50;53.10
33007;DHT22;19361;51.598;7.650;2024-03-07T14:22:02;12.30;54.00
33007;DHT22;19361;51.598;7.650;2024-03-07T14:27:32;12.20;54.30
33007;DHT22;19361;51.598;7.650;2024-03-07T14:32:39;12.20;54.30
33007;DHT22;19361;51.598;7.650;2024-03-07T14:37:52;12.10;54.40
33007;DHT22;19361;51.598;7.650;2024-03-07T14:42:58;12.20;54.70
33007;DHT22;19361;51.598;7.650;2024-03-07T14:48:01;12.10;54.20
33007;DHT22;19361;51.598;7.650;2024-03-07T14:53:01;12.10;54.60
33007;DHT22;19361;51.598;7.650;2024-03-07T14:58:04;12.00;54.80
33007;DHT22;19361;51.598;7.650;2024-03-07T15:03:07;12.00;54.90
33007;DHT22;19361;51.598;7.650;2024-03-07T15:08:09;12.00;55.00
33007;DHT22;19361;51.598;7.650;2024-03-07T15:13:10;12.00;54.70
33007;DHT22;19361;51.598;7.650;2024-03-07T15:18:12;12.00;54.80
33007;DHT22;19361;51.598;7.650;2024-03-07T15:23:13;12.00;55.10
33007;DHT22;19361;51.598;7.650;2024-03-07T15:28:14;12.00;54.50
33007;DHT22;19361;51.598;7.650;2024-03-07T15:33:14;12.10;53.00
33007;DHT22;19361;51.598;7.650;2024-03-07T15:38:15;12.10;52.90
33007;DHT22;19361;51.598;7.650;2024-03-07T15:43:18;12.20;52.70
33007;DHT22;19361;51.598;7.650;2024-03-07T15:48:18;12.30;52.90
33007;DHT22;19361;51.598;7.650;2024-03-07T15:53:22;12.30;52.60
33007;DHT22;19361;51.598;7.650;2024-03-07T15:58:23;12.30;52.60
33007;DHT22;19361;51.598;7.650;2024-03-07T16:03:23;12.20;52.50
33007;DHT22;19361;51.598;7.650;2024-03-07T16:08:25;12.10;52.90
33007;DHT22;19361;51.598;7.650;2024-03-07T16:13:26;12.10;52.90
33007;DHT22;19361;51.598;7.650;2024-03-07T16:18:27;11.90;52.80
33007;DHT22;19361;51.598;7.650;2024-03-07T16:23:28;11.80;52.60
33007;DHT22;19361;51.598;7.650;2024-03-07T16:28:29;11.70;52.60
33007;DHT22;19361;51.598;7.650;2024-03-07T16:33:29;11.70;52.90
33007;DHT22;19361;51.598;7.650;2024-03-07T16:38:31;11.60;53.10
33007;DHT22;19361;51.598;7.650;2024-03-07T16:43:34;11.50;53.30
33007;DHT22;19361;51.598;7.650;2024-03-07T16:48:37;11.40;52.70
33007;DHT22;19361;51.598;7.650;2024-03-07T16:53:38;11.30;52.80
33007;DHT22;19361;51.598;7.650;2024-03-07T16:58:40;11.30;53.20
33007;DHT22;19361;51.598;7.650;2024-03-07T17:03:41;11.20;53.00
33007;DHT22;19361;51.598;7.650;2024-03-07T17:08:42;11.10;53.20
33007;DHT22;19361;51.598;7.650;2024-03-07T17:13:42;11.00;53.30
33007;DHT22;19361;51.598;7.650;2024-03-07T17:18:43;10.90;53.50
33007;DHT22;19361;51.598;7.650;2024-03-07T17:23:44;10.90;54.00
33007;DHT22;19361;51.598;7.650;2024-03-07T17:28:45;10.80;54.30
33007;DHT22;19361;51.598;7.650;2024-03-07T17:33:45;10.70;54.40
33007;DHT22;19361;51.598;7.650;2024-03-07T17:38:46;10.60;54.70
33007;DHT22;19361;51.598;7.650;2024-03-07T17:43:47;10.50;54.90
33007;DHT22;19361;51.598;7.650;2024-03-07T17:48:47;10.40;55.00
33007;DHT22;19361;51.598;7.650;2024-03-07T17:53:48;10.40;55.10
33007;DHT22;19361;51.598;7.650;2024-03-07T17:58:49;10.20;55.10
33007;DHT22;19361;51.598;7.650;2024-03-07T18:03:51;10.20;55.40
33007;DHT22;19361;51.598;7.650;2024-03-07T18:08:53;10.10;55.50
33007;DHT22;19361;51.598;7.650;2024-03-07T18:13:53;10.00;55.60
33007;DHT22;19361;51.598;7.650;2024-03-07T18:18:55;10.00;55.70
33007;DHT22;19361;51.598;7.650;2024-03-07T18:23:56;9.90;55.70
33007;DHT22;19361;51.598;7.650;2024-03-07T18:28:57;9.80;55.80
33007;DHT22;19361;51.598;7.650;2024-03-07T18:33:58;9.80;55.80
33007;DHT22;19361;51.598;7.650;2024-03-07T18:38:58;9.80;55.90
33007;DHT22;19361;51.598;7.650;2024-03-07T18:44:01;9.70;55.70
33007;DHT22;19361;51.598;7.650;2024-03-07T18:49:02;9.60;55.70
33007;DHT22;19361;51.598;7.650;2024-03-07T18:54:08;9.60;55.70
33007;DHT22;19361;51.598;7.650;2024-03-07T18:59:09;9.60;55.70
33007;DHT22;19361;51.598;7.650;2024-03-07T19:04:10;9.50;55.50
33007;DHT22;19361;51.598;7.650;2024-03-07T19:09:11;9.40;55.30
33007;DHT22;19361;51.598;7.650;2024-03-07T19:14:15;9.30;55.20
33007;DHT22;19361;51.598;7.650;2024-03-07T19:19:15;9.30;55.90
33007;DHT22;19361;51.598;7.650;2024-03-07T19:24:17;9.20;55.40
33007;DHT22;19361;51.598;7.650;2024-03-07T19:29:19;9.20;55.50
33007;DHT22;19361;51.598;7.650;2024-03-07T19:34:21;9.10;55.40
33007;DHT22;19361;51.598;7.650;2024-03-07T19:39:21;9.00;55.50
33007;DHT22;19361;51.598;7.650;2024-03-07T19:44:22;8.90;55.30
33007;DHT22;19361;51.598;7.650;2024-03-07T19:49:23;8.90;55.50
33007;DHT22;19361;51.598;7.650;2024-03-07T19:54:23;8.90;55.60
33007;DHT22;19361;51.598;7.650;2024-03-07T19:59:24;8.80;55.70
33007;DHT22;19361;51.598;7.650;2024-03-07T20:04:25;8.70;55.60
33007;DHT22;19361;51.598;7.650;2024-03-07T20:09:26;8.70;55.80
33007;DHT22;19361;51.598;7.650;2024-03-07T20:14:26;8.60;55.80
33007;DHT22;19361;51.598;7.650;2024-03-07T20:19:27;8.60;55.80
33007;DHT22;19361;51.598;7.650;2024-03-07T20:24:28;8.50;55.80
33007;DHT22;19361;51.598;7.650;2024-03-07T20:29:29;8.40;56.00
33007;DHT22;19361;51.598;7.650;2024-03-07T20:34:31;8.40;56.00
33007;DHT22;19361;51.598;7.650;2024-03-07T20:39:31;8.40;56.10
33007;DHT22;19361;51.598;7.650;2024-03-07T20:44:34;8.30;55.70
33007;DHT22;19361;51.598;7.650;2024-03-07T20:49:35;8.20;55.40
33007;DHT22;19361;51.598;7.650;2024-03-07T20:54:36;8.20;55.50
33007;DHT22;19361;51.598;7.650;2024-03-07T20:59:37;8.20;55.40
33007;DHT22;19361;51.598;7.650;2024-03-07T21:04:39;8.10;55.80
33007;DHT22;19361;51.598;7.650;2024-03-07T21:09:39;8.10;55.40
33007;DHT22;19361;51.598;7.650;2024-03-07T21:14:41;8.00;55.20
33007;DHT22;19361;51.598;7.650;2024-03-07T21:19:43;8.00;55.30
33007;DHT22;19361;51.598;7.650;2024-03-07T21:24:44;7.90;55.40
33007;DHT22;19361;51.598;7.650;2024-03-07T21:29:45;7.90;55.30
33007;DHT22;19361;51.598;7.650;2024-03-07T21:34:45;7.80;55.20
33007;DHT22;19361;51.598;7.650;2024-03-07T21:39:46;7.80;55.30
33007;DHT22;19361;51.598;7.650;2024-03-07T21:44:49;7.70;55.20
33007;DHT22;19361;51.598;7.650;2024-03-07T21:49:50;7.70;55.40
33007;DHT22;19361;51.598;7.650;2024-03-07T21:54:52;7.60;55.30
33007;DHT22;19361;51.598;7.650;2024-03-07T21:59:52;7.50;55.30
33007;DHT22;19361;51.598;7.650;2024-03-07T22:04:54;7.50;55.30
33007;DHT22;19361;51.598;7.650;2024-03-07T22:09:57;7.50;55.40
33007;DHT22;19361;51.598;7.650;2024-03-07T22:14:59;7.40;55.50
33007;DHT22;19361;51.598;7.650;2024-03-07T22:20:01;7.30;55.50
33007;DHT22;19361;51.598;7.650;2024-03-07T22:25:05;7.30;55.60
33007;DHT22;19361;51.598;7.650;2024-03-07T22:30:11;7.20;56.30
33007;DHT22;19361;51.598;7.650;2024-03-07T22:35:14;7.20;55.70
33007;DHT22;19361;51.598;7.650;2024-03-07T22:40:15;7.10;55.60
33007;DHT22;19361;51.598;7.650;2024-03-07T22:45:16;7.10;55.80
33007;DHT22;19361;51.598;7.650;2024-03-07T22:50:17;7.00;55.80
33007;DHT22;19361;51.598;7.650;2024-03-07T22:55:20;7.00;55.90
33007;DHT22;19361;51.598;7.650;2024-03-07T23:00:22;6.90;55.80
33007;DHT22;19361;51.598;7.650;2024-03-07T23:05:26;6.90;55.50
33007;DHT22;19361;51.598;7.650;2024-03-07T23:10:27;6.80;55.70
33007;DHT22;19361;51.598;7.650;2024-03-07T23:15:28;6.80;55.70
33007;DHT22;19361;51.598;7.650;2024-03-07T23:20:28;6.80;55.80
33007;DHT22;19361;51.598;7.650;2024-03-07T23:25:29;6.70;55.70
33007;DHT22;19361;51.598;7.650;2024-03-07T23:30:30;6.70;55.80
33007;DHT22;19361;51.598;7.650;2024-03-07T23:35:30;6.60;55.90
33007;DHT22;19361;51.598;7.650;2024-03-07T23:40:31;6.60;56.00
33007;DHT22;19361;51.598;7.650;2024-03-07T23:45:33;6.50;56.00
33007;DHT22;19361;51.598;7.650;2024-03-07T23:50:33;6.50;56.30
33007;DHT22;19361;51.598;7.650;2024-03-07T23:55:34;6.40;56.20
